Time;durP1;ratioP1;P1;durP2;ratioP2;P2;SDS_P1;SDS_P2;PMS_P1;PMS_P2;Temp;Humidity;BMP_temperature;BMP_pressure;BME280_temperature;BME280_humidity;BME280_pressure;Samples;Min_cycle;Max_cycle;Signal;HPM_P1;HPM_P2
2022/04/30 00:01:28;;;;;;;6.47;2.75;;;;;;;10.93;48.98;100990.59;4972983;28;20486;-50
2022/04/30 00:03:54;;;;;;;8.65;3.20;;;;;;;10.91;49.12;100987.13;4973232;28;20046;-59
2022/04/30 00:06:21;;;;;;;5.47;3.03;;;;;;;10.90;49.19;100985.44;4973484;28;20051;-56
2022/04/30 00:08:48;;;;;;;4.75;2.78;;;;;;;10.87;49.19;100983.78;4973147;28;20054;-49
2022/04/30 00:11:14;;;;;;;5.43;2.83;;;;;;;10.88;49.15;100982.00;4972483;28;20073;-55
2022/04/30 00:13:41;;;;;;;6.70;3.08;;;;;;;10.86;49.37;100976.78;4973147;28;20047;-50
2022/04/30 00:16:07;;;;;;;3.85;2.83;;;;;;;10.86;49.28;100979.44;4972922;28;20066;-49
2022/04/30 00:18:35;;;;;;;5.85;2.78;;;;;;;10.84;49.31;100970.72;4972841;28;20178;-49
2022/04/30 00:21:02;;;;;;;7.03;2.90;;;;;;;10.84;49.32;100964.59;4971580;28;20146;-51
2022/04/30 00:23:30;;;;;;;8.77;2.95;;;;;;;10.81;49.38;100963.78;4972988;28;20049;-54
2022/04/30 00:25:56;;;;;;;5.18;2.80;;;;;;;10.80;49.42;100967.34;4973058;28;20046;-51
2022/04/30 00:28:25;;;;;;;4.70;2.88;;;;;;;10.78;49.69;100963.94;4972818;28;20046;-54
2022/04/30 00:30:53;;;;;;;5.22;3.15;;;;;;;10.76;49.49;100960.47;4971020;28;20047;-57
2022/04/30 00:33:20;;;;;;;9.25;3.33;;;;;;;10.73;49.43;100971.13;4971244;28;20066;-53
2022/04/30 00:35:48;;;;;;;6.43;3.33;;;;;;;10.72;49.46;100966.78;4971241;28;20482;-56
2022/04/30 00:38:15;;;;;;;5.45;2.92;;;;;;;10.69;49.64;100957.22;4972677;28;20066;-52
2022/04/30 00:40:43;;;;;;;6.80;3.13;;;;;;;10.68;49.40;100959.91;4972245;28;20043;-53
2022/04/30 00:43:09;;;;;;;4.97;3.25;;;;;;;10.67;49.88;100958.22;4955290;28;20055;-52
2022/04/30 00:45:36;;;;;;;7.03;3.05;;;;;;;10.64;49.55;100953.03;4972009;28;20062;-51
2022/04/30 00:48:03;;;;;;;7.60;3.47;;;;;;;10.62;49.66;100962.78;4972643;28;20047;-49
2022/04/30 00:50:36;;;;;;;9.63;3.95;;;;;;;10.57;50.35;100955.06;4972363;28;20117;-53
2022/04/30 00:53:03;;;;;;;6.13;2.85;;;;;;;10.57;49.63;100956.84;4972635;28;20054;-51
2022/04/30 00:55:33;;;;;;;9.02;3.60;;;;;;;10.57;49.94;100967.38;4970916;28;20046;-50
2022/04/30 00:58:04;;;;;;;5.45;3.17;;;;;;;10.55;50.28;100964.81;4971006;28;20059;-55
2022/04/30 01:00:32;;;;;;;5.13;3.28;;;;;;;10.56;49.91;100961.25;4972202;28;20483;-52
2022/04/30 01:02:59;;;;;;;8.60;3.30;;;;;;;10.56;49.84;100966.50;4972428;28;20102;-53
2022/04/30 01:05:28;;;;;;;5.38;3.13;;;;;;;10.55;49.98;100959.53;4972247;28;20047;-52
2022/04/30 01:07:54;;;;;;;6.47;3.17;;;;;;;10.55;49.83;100963.00;4970715;28;20101;-54
2022/04/30 01:10:21;;;;;;;4.97;2.95;;;;;;;10.54;49.75;100957.78;4972000;28;20154;-51
2022/04/30 01:12:48;;;;;;;5.57;3.10;;;;;;;10.53;49.91;100967.50;4971888;28;20673;-56
2022/04/30 01:15:15;;;;;;;8.55;3.50;;;;;;;10.51;50.08;100960.56;4970869;28;20066;-54
2022/04/30 01:17:42;;;;;;;4.25;2.97;;;;;;;10.50;49.63;100964.13;4971916;28;20059;-55
2022/04/30 01:20:10;;;;;;;9.20;3.13;;;;;;;10.47;50.01;100962.44;4970599;28;20055;-54
2022/04/30 01:23:01;;;;;;;4.15;2.80;;;;;;;10.45;50.72;100959.00;4969943;28;20066;-53
2022/04/30 01:25:30;;;;;;;5.75;3.03;;;;;;;10.43;50.26;100953.78;4972195;28;20050;-58
2022/04/30 01:27:59;;;;;;;7.50;3.20;;;;;;;10.41;50.41;100952.13;4970353;28;20050;-54
2022/04/30 01:30:27;;;;;;;5.97;3.28;;;;;;;10.38;50.24;100950.44;4970315;28;20050;-59
2022/04/30 01:38:26;;;;;;;5.63;3.13;;;;;;;10.29;50.11;100956.91;4971697;28;20058;-54
2022/04/30 01:40:53;;;;;;;5.93;3.15;;;;;;;10.27;50.17;100942.94;4971593;28;20062;-54
2022/04/30 01:43:21;;;;;;;7.38;3.05;;;;;;;10.25;50.35;100957.09;4971566;28;20462;-52
2022/04/30 01:45:48;;;;;;;6.30;3.10;;;;;;;10.22;50.31;100952.78;4971906;28;20054;-54
2022/04/30 01:48:15;;;;;;;4.10;3.20;;;;;;;10.20;50.25;100954.59;4971410;28;20054;-56
2022/04/30 01:50:42;;;;;;;5.72;3.13;;;;;;;10.17;50.65;100949.47;4971581;28;20043;-54
2022/04/30 01:53:10;;;;;;;6.30;3.20;;;;;;;10.13;50.55;100945.25;4970249;28;20066;-55
2022/04/30 01:55:37;;;;;;;6.47;3.22;;;;;;;10.10;50.54;100943.53;4971675;28;20061;-51
2022/04/30 01:58:04;;;;;;;5.47;3.38;;;;;;;10.08;50.73;100936.63;4971497;28;20074;-49
2022/04/30 02:00:32;;;;;;;5.38;3.42;;;;;;;10.06;50.70;100935.84;4969938;28;20084;-52
2022/04/30 02:03:07;;;;;;;8.23;3.47;;;;;;;10.00;51.62;100935.16;4970550;28;20059;-50
2022/04/30 02:05:37;;;;;;;5.10;3.05;;;;;;;10.00;51.12;100927.25;4971859;28;20046;-51
2022/04/30 02:08:07;;;;;;;5.75;3.95;;;;;;;9.98;50.92;100931.69;4970078;28;20061;-50
2022/04/30 02:10:40;;;;;;;6.45;3.45;;;;;;;9.96;51.54;100932.66;4970123;28;20051;-49
2022/04/30 02:13:09;;;;;;;5.90;3.58;;;;;;;9.94;50.79;100937.13;4970289;28;20046;-50
2022/04/30 02:15:40;;;;;;;6.60;3.60;;;;;;;9.91;50.92;100932.84;4971559;28;20109;-49
2022/04/30 02:18:13;;;;;;;5.82;3.40;;;;;;;9.86;51.38;100929.50;4970276;28;20085;-55
2022/04/30 02:20:43;;;;;;;7.40;3.67;;;;;;;9.87;51.05;100931.25;4969897;28;20070;-51
2022/04/30 02:23:10;;;;;;;5.75;3.25;;;;;;;9.86;51.13;100929.50;4971181;28;20410;-56
2022/04/30 02:25:37;;;;;;;9.32;3.63;;;;;;;9.82;51.23;100928.75;4969938;28;20055;-54
2022/04/30 02:28:08;;;;;;;5.22;3.42;;;;;;;9.78;51.16;100930.66;4971611;28;20199;-52
2022/04/30 02:30:37;;;;;;;7.28;3.60;;;;;;;9.75;51.11;100922.84;4971397;28;20062;-54
2022/04/30 02:33:08;;;;;;;7.15;3.10;;;;;;;9.69;51.79;100925.72;4971372;28;20400;-58
2022/04/30 02:35:37;;;;;;;5.18;3.40;;;;;;;9.68;51.22;100920.50;4973633;28;20147;-54
2022/04/30 02:38:08;;;;;;;8.20;3.78;;;;;;;9.64;51.46;100924.97;4973684;28;20062;-52
2022/04/30 02:40:37;;;;;;;4.22;3.08;;;;;;;9.58;51.18;100910.31;4974973;28;20054;-57
2022/04/30 02:43:15;;;;;;;9.70;3.72;;;;;;;9.55;51.22;100914.78;4973579;28;20051;-54
2022/04/30 02:45:43;;;;;;;8.60;3.65;;;;;;;9.51;51.05;100912.28;4974652;28;20105;-55
2022/04/30 02:48:12;;;;;;;6.78;3.80;;;;;;;9.46;51.07;100921.22;4973359;28;20165;-60
2022/04/30 02:50:40;;;;;;;9.20;3.90;;;;;;;9.41;51.46;100908.22;4973162;28;20096;-50
2022/04/30 02:53:07;;;;;;;6.07;3.72;;;;;;;9.37;51.47;100911.88;4973245;28;20047;-51
2022/04/30 02:55:33;;;;;;;6.88;3.85;;;;;;;9.33;51.40;100907.63;4974676;28;20047;-50
2022/04/30 03:00:47;;;;;;;8.95;4.63;;;;;;;9.24;51.53;100903.56;4974666;28;20043;-56
2022/04/30 03:03:15;;;;;;;5.45;3.80;;;;;;;9.19;51.87;100906.31;4972953;28;20518;-48
2022/04/30 03:05:44;;;;;;;4.97;3.67;;;;;;;9.16;51.55;100900.31;4973397;28;20065;-55
2022/04/30 03:08:19;;;;;;;7.55;3.58;;;;;;;9.10;52.09;100898.75;4973242;28;20126;-54
2022/04/30 03:10:48;;;;;;;7.65;3.35;;;;;;;9.06;51.76;100899.75;4973124;28;20050;-49
2022/04/30 03:13:17;;;;;;;8.57;4.13;;;;;;;9.02;51.88;100903.38;4973079;28;20400;-54
2022/04/30 03:15:45;;;;;;;4.95;3.45;;;;;;;8.98;51.72;100898.22;4974261;28;20062;-53
2022/04/30 03:23:39;;;;;;;6.25;3.90;;;;;;;8.88;52.20;100901.19;4973912;28;20054;-53
2022/04/30 03:26:11;;;;;;;7.30;3.70;;;;;;;8.85;52.02;100889.88;4972920;28;20067;-53
2022/04/30 03:28:40;;;;;;;5.68;3.83;;;;;;;8.82;52.34;100895.22;4974040;28;20418;-56
2022/04/30 03:31:10;;;;;;;4.07;3.40;;;;;;;8.80;52.57;100894.44;4973798;28;20078;-56
2022/04/30 03:33:37;;;;;;;7.35;4.15;;;;;;;8.78;52.25;100893.59;4972426;28;20055;-57
2022/04/30 03:36:05;;;;;;;7.60;3.83;;;;;;;8.76;52.33;100887.53;4972595;28;20054;-50
2022/04/30 03:38:31;;;;;;;6.40;3.88;;;;;;;8.74;52.50;100881.47;4973797;28;20062;-53
2022/04/30 03:40:58;;;;;;;9.25;4.57;;;;;;;8.73;52.51;100883.25;4974025;28;20426;-54
2022/04/30 03:43:25;;;;;;;16.83;5.00;;;;;;;8.71;52.83;100874.56;4973817;28;20055;-53
2022/04/30 03:45:51;;;;;;;12.48;4.82;;;;;;;8.71;52.78;100874.56;4972889;28;20075;-55
2022/04/30 03:48:19;;;;;;;6.47;4.93;;;;;;;8.71;52.99;100876.34;4973530;28;20057;-55
2022/04/30 03:50:46;;;;;;;8.98;4.70;;;;;;;8.70;53.08;100870.22;4973227;28;20484;-58
2022/04/30 03:53:13;;;;;;;8.43;5.35;;;;;;;8.72;53.37;100873.63;4973310;28;20046;-53
2022/04/30 03:55:40;;;;;;;8.40;4.47;;;;;;;8.75;53.58;100874.47;4973189;28;20614;-54
2022/04/30 03:58:06;;;;;;;8.40;4.85;;;;;;;8.78;53.55;100869.13;4973503;28;20050;-48
2022/04/30 04:00:33;;;;;;;8.25;5.70;;;;;;;8.79;53.64;100868.22;4973044;28;20410;-54
2022/04/30 04:03:00;;;;;;;27.15;6.40;;;;;;;8.81;53.71;100872.50;4972272;28;20060;-50
2022/04/30 04:05:28;;;;;;;11.15;5.72;;;;;;;8.84;53.61;100872.41;4973170;28;20054;-49
2022/04/30 04:07:58;;;;;;;7.97;5.97;;;;;;;8.85;54.29;100870.63;4973436;28;20047;-51
2022/04/30 04:10:25;;;;;;;8.02;5.63;;;;;;;8.89;53.66;100867.00;4972924;28;20057;-52
2022/04/30 04:17:37;;;;;;;10.55;5.55;;;;;;;8.91;53.50;100872.22;4973049;28;20463;-57
2022/04/30 04:18:24;;;;;;;8.55;4.93;;;;;;;8.93;53.69;100873.88;4972871;28;20047;-59
2022/04/30 04:20:50;;;;;;;11.05;5.25;;;;;;;8.93;53.42;100873.88;4972923;28;20058;-55
2022/04/30 04:23:17;;;;;;;10.32;5.07;;;;;;;8.92;53.75;100880.03;4972899;28;20065;-49
2022/04/30 04:26:00;;;;;;;7.32;4.85;;;;;;;8.92;53.43;100884.41;4973025;28;20051;-51
2022/04/30 04:28:28;;;;;;;8.57;5.22;;;;;;;8.90;53.86;100873.13;4972718;28;20065;-51
2022/04/30 04:30:56;;;;;;;9.13;4.97;;;;;;;8.90;53.52;100876.59;4972588;28;20054;-56
2022/04/30 04:33:23;;;;;;;7.82;4.90;;;;;;;8.89;53.63;100880.13;4971874;28;20046;-56
2022/04/30 04:35:50;;;;;;;9.85;5.07;;;;;;;8.89;53.97;100877.50;4971655;28;20062;-52
2022/04/30 04:38:16;;;;;;;11.90;5.07;;;;;;;8.89;53.79;100882.75;4972721;28;20062;-58
2022/04/30 04:40:43;;;;;;;9.10;4.88;;;;;;;8.89;53.89;100880.13;4972481;28;20056;-53
2022/04/30 04:43:09;;;;;;;9.52;5.32;;;;;;;8.90;54.11;100881.00;4972451;28;20053;-48
2022/04/30 04:45:39;;;;;;;12.60;5.60;;;;;;;8.90;54.00;100884.47;4972635;28;20170;-51
2022/04/30 04:48:08;;;;;;;8.57;5.60;;;;;;;8.91;53.95;100877.47;4971537;28;20043;-52
2022/04/30 04:50:35;;;;;;;8.93;5.82;;;;;;;8.92;54.57;100890.53;4970809;28;20055;-52
2022/04/30 04:53:01;;;;;;;9.27;4.82;;;;;;;8.93;54.25;100887.00;4972373;28;20599;-50
2022/04/30 04:55:28;;;;;;;10.13;5.28;;;;;;;8.98;54.51;100900.00;4972217;28;20059;-56
2022/04/30 04:57:55;;;;;;;10.80;5.20;;;;;;;8.99;54.42;100891.22;4972169;28;20059;-59
2022/04/30 05:00:21;;;;;;;6.65;4.63;;;;;;;9.03;54.54;100897.22;4972275;28;20050;-53
2022/04/30 05:02:48;;;;;;;7.80;5.55;;;;;;;9.05;54.62;100900.66;4972310;28;20062;-59
2022/04/30 05:05:15;;;;;;;11.65;5.55;;;;;;;9.08;55.11;100890.06;4972557;28;20066;-59
2022/04/30 05:07:41;;;;;;;14.60;6.03;;;;;;;9.12;54.72;100889.91;4972116;28;20054;-56
2022/04/30 05:10:08;;;;;;;7.18;5.55;;;;;;;9.18;55.17;100893.22;4972050;28;20054;-53
2022/04/30 05:12:35;;;;;;;14.32;5.53;;;;;;;9.24;55.09;100893.03;4972150;28;20074;-55
2022/04/30 05:15:03;;;;;;;9.05;5.38;;;;;;;9.30;55.33;100899.88;4972144;28;20065;-56
2022/04/30 05:17:29;;;;;;;12.52;5.95;;;;;;;9.36;55.08;100899.66;4970750;28;20046;-57
2022/04/30 05:19:56;;;;;;;10.63;5.10;;;;;;;9.41;55.17;100897.72;4972079;28;20050;-52
2022/04/30 05:22:22;;;;;;;10.10;6.05;;;;;;;9.48;55.20;100901.88;4971731;28;20514;-53
2022/04/30 05:24:49;;;;;;;12.60;6.20;;;;;;;9.54;54.96;100902.56;4971666;28;20485;-59
2022/04/30 05:27:16;;;;;;;8.65;5.68;;;;;;;9.59;55.08;100900.63;4972118;28;20058;-56
2022/04/30 05:29:43;;;;;;;9.93;5.60;;;;;;;9.63;54.90;100899.63;4970307;28;20058;-55
2022/04/30 05:32:10;;;;;;;11.13;5.88;;;;;;;9.68;55.15;100902.94;4972054;28;20062;-59
2022/04/30 05:34:37;;;;;;;9.32;5.80;;;;;;;9.71;55.13;100892.31;4970547;28;20058;-52
2022/04/30 05:37:03;;;;;;;9.80;5.90;;;;;;;9.75;55.06;100898.31;4971835;28;20117;-59
2022/04/30 05:39:30;;;;;;;10.50;5.75;;;;;;;9.78;54.74;100895.59;4971660;28;20061;-58
2022/04/30 05:41:57;;;;;;;12.23;5.70;;;;;;;9.81;55.03;100895.50;4971539;28;20498;-51
2022/04/30 05:44:23;;;;;;;11.10;5.65;;;;;;;9.82;55.17;100894.56;4971991;28;20055;-54
2022/04/30 05:46:50;;;;;;;13.77;5.35;;;;;;;9.85;55.35;100896.22;4970375;28;20058;-59
2022/04/30 05:49:16;;;;;;;8.25;5.65;;;;;;;9.87;55.15;100894.41;4971327;28;20054;-56
2022/04/30 05:51:43;;;;;;;9.07;5.97;;;;;;;9.91;55.06;100907.38;4971438;28;20075;-54
2022/04/30 05:54:10;;;;;;;13.82;6.32;;;;;;;9.95;55.05;100899.41;4971509;28;20073;-59
2022/04/30 05:56:36;;;;;;;7.68;5.70;;;;;;;9.97;54.90;100898.44;4971658;28;20491;-56
2022/04/30 05:59:03;;;;;;;13.65;5.97;;;;;;;9.99;55.12;100896.59;4970171;28;20046;-56
2022/04/30 06:01:30;;;;;;;8.38;5.90;;;;;;;10.01;55.07;100902.66;4970074;28;20058;-51
2022/04/30 06:03:57;;;;;;;13.27;6.28;;;;;;;10.04;55.17;100893.81;4970452;28;20498;-52
2022/04/30 06:06:24;;;;;;;12.88;6.20;;;;;;;10.06;55.24;100899.00;4970777;28;20056;-49
2022/04/30 06:08:50;;;;;;;9.05;5.78;;;;;;;10.08;55.24;100902.44;4972487;28;20050;-59
2022/04/30 06:11:17;;;;;;;10.80;6.18;;;;;;;10.13;55.20;100901.34;4973520;28;20107;-59
2022/04/30 06:13:45;;;;;;;10.15;6.20;;;;;;;10.16;55.12;100903.00;4974144;28;20162;-58
2022/04/30 06:16:12;;;;;;;11.35;6.82;;;;;;;10.19;54.99;100908.16;4974974;28;20511;-58
2022/04/30 06:18:39;;;;;;;13.95;8.45;;;;;;;10.23;55.39;100912.41;4975221;28;20070;-55
2022/04/30 06:21:26;;;;;;;22.70;7.95;;;;;;;10.28;55.29;100913.09;4974593;28;20417;-59
2022/04/30 06:23:52;;;;;;;34.80;8.50;;;;;;;10.35;55.31;100912.88;4974601;28;20055;-57
2022/04/30 06:26:19;;;;;;;15.35;7.20;;;;;;;10.40;55.37;100914.38;4973738;28;20463;-58
2022/04/30 06:28:46;;;;;;;23.60;7.53;;;;;;;10.47;55.14;100908.94;4973830;28;20047;-57
2022/04/30 06:31:13;;;;;;;15.60;7.63;;;;;;;10.48;55.00;100903.63;4974476;28;20063;-61
2022/04/30 06:33:39;;;;;;;13.52;7.00;;;;;;;10.51;55.08;100900.00;4974510;28;20054;-58
2022/04/30 06:36:07;;;;;;;22.17;7.13;;;;;;;10.53;55.08;100899.03;4975141;28;20061;-54
2022/04/30 06:38:34;;;;;;;18.38;7.00;;;;;;;10.53;55.16;100909.56;4973789;28;20047;-57
2022/04/30 06:41:00;;;;;;;22.25;7.30;;;;;;;10.54;55.01;100908.66;4974086;28;20498;-55
2022/04/30 06:43:27;;;;;;;16.08;6.88;;;;;;;10.55;55.15;100912.16;4974668;28;20055;-58
2022/04/30 06:45:54;;;;;;;9.88;6.63;;;;;;;10.54;55.30;100911.28;4974669;28;20442;-56
2022/04/30 06:48:20;;;;;;;10.30;6.60;;;;;;;10.55;55.32;100912.97;4974774;28;20054;-53
2022/04/30 06:50:48;;;;;;;12.18;6.00;;;;;;;10.58;55.49;100913.81;4974182;28;20147;-58
2022/04/30 06:58:50;;;;;;;7.60;6.03;;;;;;;10.64;55.32;100908.28;4974395;28;20074;-60
2022/04/30 07:04:04;;;;;;;12.35;6.63;;;;;;;10.70;55.48;100915.97;4974445;28;20121;-51
2022/04/30 07:06:32;;;;;;;9.10;6.32;;;;;;;10.74;55.88;100916.69;4973630;28;20058;-53
2022/04/30 07:09:00;;;;;;;9.65;5.70;;;;;;;10.80;56.14;100916.44;4972932;28;20051;-54
2022/04/30 07:11:27;;;;;;;11.88;6.88;;;;;;;10.87;56.13;100911.81;4974420;28;20062;-57
2022/04/30 07:13:54;;;;;;;12.65;6.65;;;;;;;10.95;56.17;100913.22;4974395;28;20487;-60
2022/04/30 07:16:20;;;;;;;8.68;6.15;;;;;;;11.03;56.28;100912.91;4974237;28;20251;-59
2022/04/30 07:18:47;;;;;;;7.90;5.95;;;;;;;11.15;56.15;100923.88;4973987;28;20082;-60
2022/04/30 07:21:14;;;;;;;8.60;6.38;;;;;;;11.25;56.11;100914.66;4972514;28;20058;-61
2022/04/30 07:23:41;;;;;;;9.13;6.10;;;;;;;11.36;56.01;100914.22;4974003;28;20059;-58
2022/04/30 07:26:07;;;;;;;9.48;6.45;;;;;;;11.47;55.84;100921.66;4974352;28;20446;-57
2022/04/30 07:28:35;;;;;;;10.32;6.93;;;;;;;11.57;55.50;100917.75;4974095;28;20142;-62
2022/04/30 07:31:05;;;;;;;8.98;6.10;;;;;;;11.65;55.44;100912.13;4973739;28;20055;-59
2022/04/30 07:33:32;;;;;;;9.13;6.43;;;;;;;11.76;55.22;100906.38;4972707;28;20137;-59
2022/04/30 07:36:00;;;;;;;10.38;6.25;;;;;;;11.85;55.07;100908.63;4973724;28;20043;-55
2022/04/30 07:38:27;;;;;;;8.45;5.97;;;;;;;11.95;55.06;100910.84;4974173;28;20065;-55
2022/04/30 07:40:54;;;;;;;8.20;5.78;;;;;;;12.04;54.89;100910.44;4973612;28;20124;-58
2022/04/30 07:43:20;;;;;;;7.40;5.78;;;;;;;12.14;54.56;100915.34;4973752;28;20061;-61
2022/04/30 07:45:47;;;;;;;9.93;6.18;;;;;;;12.20;54.44;100907.16;4973808;28;20047;-61
2022/04/30 07:48:14;;;;;;;10.65;5.65;;;;;;;12.26;53.88;100912.13;4973653;28;20137;-56
2022/04/30 07:50:44;;;;;;;7.55;5.22;;;;;;;12.32;53.83;100903.09;4973173;28;20059;-62
2022/04/30 07:53:15;;;;;;;11.40;6.05;;;;;;;12.36;53.95;100904.66;4972331;28;20059;-59
2022/04/30 07:55:43;;;;;;;9.52;5.82;;;;;;;12.45;53.46;100895.47;4972543;28;20110;-59
2022/04/30 07:58:10;;;;;;;11.85;5.07;;;;;;;12.52;53.09;100902.16;4972089;28;20047;-60
2022/04/30 08:00:37;;;;;;;5.80;4.03;;;;;;;12.59;52.27;100900.94;4971695;28;20082;-61
2022/04/30 08:03:03;;;;;;;5.03;3.45;;;;;;;12.66;52.02;100898.00;4972639;28;20060;-60
2022/04/30 08:05:31;;;;;;;6.88;3.72;;;;;;;12.72;51.48;100900.38;4973756;28;20992;-59
2022/04/30 08:07:58;;;;;;;5.28;4.18;;;;;;;12.78;51.46;100900.06;4973628;28;20496;-58
2022/04/30 08:10:25;;;;;;;6.70;4.35;;;;;;;12.84;51.54;100899.78;4971988;28;20407;-60
2022/04/30 08:12:54;;;;;;;6.20;4.43;;;;;;;12.89;51.42;100903.06;4973054;28;20097;-59
2022/04/30 08:15:22;;;;;;;8.80;3.67;;;;;;;12.98;51.40;100903.53;4973460;28;20055;-60
2022/04/30 08:17:49;;;;;;;10.45;4.68;;;;;;;13.08;51.74;100904.78;4971932;28;20051;-60
2022/04/30 08:20:16;;;;;;;7.15;4.43;;;;;;;13.19;51.43;100898.97;4971771;28;20062;-60
2022/04/30 08:22:42;;;;;;;6.07;3.75;;;;;;;13.31;50.71;100902.81;4972959;28;20047;-53
2022/04/30 08:25:09;;;;;;;4.82;3.50;;;;;;;13.41;50.92;100898.78;4973105;28;20772;-61
2022/04/30 08:27:36;;;;;;;4.38;3.30;;;;;;;13.55;50.93;100899.88;4972698;28;20046;-59
2022/04/30 08:30:03;;;;;;;6.05;3.88;;;;;;;13.67;50.72;100896.63;4972615;28;20055;-59
2022/04/30 08:32:30;;;;;;;6.50;4.00;;;;;;;13.83;50.61;100902.91;4971254;28;20059;-59
2022/04/30 08:34:59;;;;;;;5.47;3.97;;;;;;;13.92;49.57;100895.34;4972822;28;20082;-59
2022/04/30 08:37:26;;;;;;;5.40;4.00;;;;;;;13.99;49.54;100882.63;4971394;28;20050;-61
2022/04/30 08:39:53;;;;;;;7.88;4.28;;;;;;;14.03;49.37;100891.25;4972467;28;20054;-60
2022/04/30 08:42:23;;;;;;;5.53;3.70;;;;;;;14.02;48.95;100882.44;4972605;28;20109;-59
2022/04/30 08:44:49;;;;;;;5.60;3.53;;;;;;;14.04;49.04;100879.72;4971307;28;20046;-59
2022/04/30 08:47:16;;;;;;;7.93;3.53;;;;;;;14.06;48.87;100893.75;4972473;28;20210;-61
2022/04/30 08:49:43;;;;;;;7.43;3.55;;;;;;;14.07;49.24;100888.38;4971849;28;20043;-59
2022/04/30 08:52:11;;;;;;;31.15;4.55;;;;;;;14.16;49.57;100884.34;4972543;28;20054;-59
2022/04/30 08:54:38;;;;;;;24.48;4.20;;;;;;;14.27;49.58;100885.56;4972355;28;20466;-60
2022/04/30 08:57:05;;;;;;;13.35;3.33;;;;;;;14.39;49.24;100879.59;4972341;28;20576;-59
2022/04/30 08:59:32;;;;;;;6.47;2.92;;;;;;;14.54;48.71;100885.00;4972229;28;20113;-60
2022/04/30 09:02:01;;;;;;;21.83;4.60;;;;;;;14.65;48.61;100889.69;4972155;28;20046;-57
2022/04/30 09:04:43;;;;;;;5.68;4.00;;;;;;;14.75;47.91;100879.41;4972360;28;20051;-59
2022/04/30 09:07:19;;;;;;;6.20;3.67;;;;;;;14.91;47.49;100882.09;4972458;28;20464;-60
2022/04/30 09:09:55;;;;;;;6.65;3.40;;;;;;;15.01;47.67;100879.75;4971906;28;20059;-61
2022/04/30 09:12:23;;;;;;;6.53;3.78;;;;;;;15.15;47.46;100882.47;4970979;28;20055;-60
2022/04/30 09:14:50;;;;;;;5.25;3.40;;;;;;;15.22;47.16;100881.16;4970793;28;20131;-59
2022/04/30 09:17:17;;;;;;;7.78;3.30;;;;;;;15.26;46.99;100873.88;4972104;28;20511;-62
2022/04/30 09:19:59;;;;;;;7.68;4.05;;;;;;;15.25;46.16;100882.75;4971664;28;20046;-59
2022/04/30 09:22:31;;;;;;;5.50;3.60;;;;;;;15.27;45.97;100878.25;4970599;28;20050;-60
2022/04/30 09:24:59;;;;;;;7.90;3.38;;;;;;;15.29;46.25;100881.66;4970732;28;20522;-61
2022/04/30 09:27:51;;;;;;;3.75;3.17;;;;;;;15.28;46.50;100868.50;4971909;28;20109;-59
2022/04/30 09:30:29;;;;;;;4.13;2.78;;;;;;;15.30;45.89;100877.19;4971613;28;20085;-56
2022/04/30 09:33:03;;;;;;;4.10;2.75;;;;;;;15.35;46.04;100872.47;4971808;28;20506;-58
2022/04/30 09:38:19;;;;;;;5.75;3.05;;;;;;;15.55;46.28;100859.81;4971743;28;20054;-61
2022/04/30 09:40:57;;;;;;;3.75;2.60;;;;;;;15.64;45.89;100867.22;4970262;28;20510;-56
2022/04/30 09:43:30;;;;;;;3.70;2.80;;;;;;;15.74;45.39;100860.41;4969887;28;20063;-59
2022/04/30 09:46:06;;;;;;;3.40;2.67;;;;;;;15.88;45.37;100866.66;4971746;28;20073;-57
2022/04/30 09:54:05;;;;;;;6.72;2.22;;;;;;;16.21;44.93;100856.72;4971873;28;20062;-61
2022/04/30 09:56:44;;;;;;;6.00;2.40;;;;;;;16.28;43.96;100853.59;4971785;28;20051;-59
2022/04/30 09:59:13;;;;;;;2.95;1.88;;;;;;;16.42;43.93;100846.53;4970289;28;20054;-57
2022/04/30 10:01:42;;;;;;;2.35;1.83;;;;;;;16.52;44.02;100846.81;4971356;28;20083;-62
2022/04/30 10:04:13;;;;;;;5.97;2.22;;;;;;;16.64;44.10;100845.16;4971773;28;20403;-60
2022/04/30 10:06:45;;;;;;;5.30;2.78;;;;;;;16.75;44.12;100839.13;4970156;28;20058;-61
2022/04/30 10:09:18;;;;;;;6.38;2.65;;;;;;;16.89;43.30;100849.69;4970205;28;20071;-59
2022/04/30 10:11:56;;;;;;;5.63;2.50;;;;;;;17.01;42.61;100848.00;4970117;28;20054;-59
2022/04/30 10:14:48;;;;;;;6.18;2.28;;;;;;;17.16;43.20;100845.34;4970072;28;20059;-60
2022/04/30 10:17:20;;;;;;;2.25;2.03;;;;;;;17.35;43.51;100847.59;4971455;28;20050;-57
2022/04/30 10:20:00;;;;;;;3.53;2.17;;;;;;;17.48;41.88;100844.94;4970006;28;20051;-60
2022/04/30 10:22:28;;;;;;;3.58;2.25;;;;;;;17.69;43.00;100831.09;4970099;28;20509;-58
2022/04/30 10:24:57;;;;;;;3.42;2.38;;;;;;;17.84;42.60;100832.66;4971579;28;20055;-59
2022/04/30 10:27:36;;;;;;;2.63;2.25;;;;;;;18.00;42.58;100831.59;4970218;28;20055;-59
2022/04/30 10:30:05;;;;;;;3.92;2.30;;;;;;;18.13;41.69;100834.22;4971311;28;20133;-58
2022/04/30 10:32:33;;;;;;;3.97;2.38;;;;;;;18.21;40.59;100829.22;4971188;28;20063;-61
2022/04/30 10:35:03;;;;;;;2.83;2.28;;;;;;;18.26;41.23;100823.56;4970256;28;20066;-60
2022/04/30 10:37:36;;;;;;;3.38;2.45;;;;;;;18.32;40.87;100824.94;4968270;28;20059;-60
2022/04/30 10:40:10;;;;;;;2.47;1.73;;;;;;;18.36;40.36;100819.25;4959515;28;20550;-60
2022/04/30 10:42:41;;;;;;;2.33;1.70;;;;;;;18.47;40.50;100818.47;4954226;28;20059;-58
2022/04/30 10:45:12;;;;;;;2.95;2.10;;;;;;;18.59;41.53;100808.72;4952223;28;20055;-58
2022/04/30 10:47:52;;;;;;;4.40;2.08;;;;;;;18.71;40.47;100812.28;4950713;29;20154;-60
2022/04/30 10:50:19;;;;;;;9.25;2.10;;;;;;;18.97;41.81;100803.28;4950662;29;20047;-58
2022/04/30 10:52:48;;;;;;;8.15;2.10;;;;;;;19.24;41.47;100803.00;4951960;28;20422;-56
2022/04/30 10:55:22;;;;;;;3.13;1.80;;;;;;;19.62;40.81;100803.66;4952502;28;20055;-57
2022/04/30 10:57:49;;;;;;;2.33;1.85;;;;;;;20.15;41.50;100804.84;4955115;28;20499;-59
2022/04/30 11:00:15;;;;;;;6.53;1.77;;;;;;;20.70;41.15;100795.94;4955215;28;20153;-59
2022/04/30 11:02:48;;;;;;;3.13;1.90;;;;;;;21.18;39.20;100796.44;4955203;28;20094;-62
2022/04/30 11:05:19;;;;;;;2.25;1.75;;;;;;;21.45;36.74;100795.03;4954091;29;20051;-57
2022/04/30 11:07:46;;;;;;;3.55;1.70;;;;;;;21.71;38.07;100799.94;4955074;28;20062;-60
2022/04/30 11:10:13;;;;;;;4.25;1.70;;;;;;;21.99;38.22;100792.16;4954303;28;20055;-60
2022/04/30 11:12:40;;;;;;;2.60;1.83;;;;;;;22.37;37.56;100792.41;4953745;29;20047;-59
2022/04/30 11:15:08;;;;;;;1.60;1.50;;;;;;;22.85;37.57;100794.41;4953602;29;20056;-60
2022/04/30 11:17:46;;;;;;;3.55;1.50;;;;;;;23.35;35.66;100796.03;4953867;29;20555;-61
2022/04/30 11:20:22;;;;;;;4.10;1.85;;;;;;;23.69;35.12;100784.72;4954301;28;20087;-63
2022/04/30 11:22:53;;;;;;;2.22;1.50;;;;;;;23.81;33.51;100785.38;4953443;29;20051;-61
2022/04/30 11:25:20;;;;;;;2.22;1.60;;;;;;;23.72;32.57;100772.81;4953720;29;20058;-61
2022/04/30 11:27:47;;;;;;;2.65;1.60;;;;;;;23.54;32.75;100773.63;4954845;28;20130;-59
2022/04/30 11:30:13;;;;;;;2.47;1.52;;;;;;;23.37;32.85;100775.25;4954254;28;20047;-63
2022/04/30 11:32:48;;;;;;;1.88;1.48;;;;;;;23.16;32.88;100775.41;4954955;29;20114;-61
2022/04/30 11:35:16;;;;;;;3.58;1.75;;;;;;;23.07;33.05;100769.09;4954646;28;20567;-61
2022/04/30 11:37:43;;;;;;;1.85;1.55;;;;;;;23.02;34.52;100766.81;4954589;28;20059;-60
2022/04/30 11:40:11;;;;;;;3.00;1.60;;;;;;;23.12;34.29;100772.19;4954130;28;20118;-61
2022/04/30 11:42:38;;;;;;;2.17;1.98;;;;;;;23.25;33.49;100755.72;4954642;28;20054;-60
2022/04/30 11:45:05;;;;;;;1.60;1.50;;;;;;;23.30;32.38;100769.56;4954478;28;20051;-60
2022/04/30 11:47:32;;;;;;;2.33;1.63;;;;;;;23.19;31.64;100761.69;4954270;28;20467;-62
2022/04/30 11:50:08;;;;;;;2.42;1.60;;;;;;;22.89;31.36;100752.84;4952893;29;20051;-61
2022/04/30 11:52:35;;;;;;;3.03;1.95;;;;;;;22.62;31.46;100759.81;4954063;28;20064;-61
2022/04/30 11:55:05;;;;;;;3.45;1.80;;;;;;;22.28;31.79;100757.50;4953132;29;20078;-62
2022/04/30 11:57:34;;;;;;;2.45;1.83;;;;;;;21.94;31.75;100754.19;4954442;28;20051;-61
2022/04/30 12:00:01;;;;;;;2.13;1.60;;;;;;;21.62;32.15;100760.56;4953452;28;20057;-61
2022/04/30 12:02:30;;;;;;;5.22;1.75;;;;;;;21.29;32.29;100759.84;4951927;29;20058;-60
2022/04/30 12:05:02;;;;;;;2.67;1.88;;;;;;;20.95;31.97;100756.44;4953004;29;20063;-61
2022/04/30 12:07:41;;;;;;;3.00;1.70;;;;;;;20.67;32.83;100761.41;4952382;28;20047;-61